Decoded Metar for LFOA (AVORD in FRANCE) (IATA:N/A) | Meteo·Mobile Aviation Weather
aviador You're here:

LFOA Decoded Metar

AVORD in FRANCE
Report Time2019-07-19 18:30:00
UTC Time2019-07-19 18:38:31
Flight Rules vfr VFR
WindVRB at 02 kt
Visibility9999 m
Phenomena:N/A
Clouds:N/A
Expected CloudBase > 6,000 ft AGL from Temp-Dew spread
CeilingNone
Temp28°C (ISA +14)
Dew Point13°C (40% RH)
Heat Index27.7°C
QNH1013 hPa
Density Alt2,418 ft
Elevation587 ft
Report Wrong Elevation
Raw Report
METAR LFOA 191830Z AUTO VRB02KT CAVOK 28/13 Q1013=

Extra information for LFOA:More info

Metar Taf Metar & Taf Last 4 Metars F.Rules Stats Wind Profile Meteogram Temp Stats Airport Information Weather charts Add Link Nearby VenuesMetar ALERT Operation Metar Decoded Social comments